Pagrindinis puslapis
METAR-TAF:

METAR-TAF

Oro uostai :

Mecas-Nansi-Lotaringija, Prancūzija

platuma: 48-59N, ilguma: 006-15E, Aukštis: 264 m

Dabartinis oras

Ataskaita buvo paskelbta 44 minutes, ne 00:00 UTC
Vėjas 11 kt iš Šiaurės
Temperatūra 6°C
Drėgmė 70%
Slėgis 1021 hPa
Matomumas 10 km arba daugiau
nėra debesų žemiau 1500 m ir nėra kamuolinių lietaus debesų

METAR: LFJL 290000Z AUTO 01011KT CAVOK 06/01 Q1021

Laikas: 01:44 (00:44 UTC)


TAF: trūkstamas

Orai ataskaitas ir orų prognozės (METAR, TAF).

turimą stotys yra geltonos ir raudonos taškus žemėlapyje.

Perkelti pele per norėdami pamatyti stoties vardą.

Tada spustelėkite, norėdami matyti oro stebėjimo ir prognozės.

Norėdami pakeisti žemėlapį: spustelėkite ant žalios mygtukų su juodo kryžiaus žemyn,; žalią mygtuką su brūkšneliu, jei norite nutolinti; arba žalių rodyklių gretimoms žemėlapius.


METAR-TAF: